sensor_id;sensor_type;location;lat;lon;timestamp;temperature;humidity
20744;DHT22;56303;52.160;-0.428;2022-07-29T00:01:01;16.90;99.90
20744;DHT22;56303;52.160;-0.428;2022-07-29T00:03:28;17.10;99.90
20744;DHT22;56303;52.160;-0.428;2022-07-29T00:05:55;17.20;99.90
20744;DHT22;56303;52.160;-0.428;2022-07-29T00:08:22;17.20;99.90
20744;DHT22;56303;52.160;-0.428;2022-07-29T00:10:49;17.20;99.90
20744;DHT22;56303;52.160;-0.428;2022-07-29T00:13:16;17.00;99.90
20744;DHT22;56303;52.160;-0.428;2022-07-29T00:15:43;16.90;99.90
20744;DHT22;56303;52.160;-0.428;2022-07-29T00:18:10;17.10;99.90
20744;DHT22;56303;52.160;-0.428;2022-07-29T00:20:36;17.10;99.90
20744;DHT22;56303;52.160;-0.428;2022-07-29T00:23:03;17.20;99.90
20744;DHT22;56303;52.160;-0.428;2022-07-29T00:25:30;17.20;99.90
20744;DHT22;56303;52.160;-0.428;2022-07-29T00:27:59;17.40;99.90
20744;DHT22;56303;52.160;-0.428;2022-07-29T00:30:26;17.60;99.90
20744;DHT22;56303;52.160;-0.428;2022-07-29T00:32:53;17.40;99.90
20744;DHT22;56303;52.160;-0.428;2022-07-29T00:35:19;17.40;99.90
20744;DHT22;56303;52.160;-0.428;2022-07-29T00:38:05;17.20;99.90
20744;DHT22;56303;52.160;-0.428;2022-07-29T00:40:32;17.40;99.90
20744;DHT22;56303;52.160;-0.428;2022-07-29T00:42:59;17.60;99.90
20744;DHT22;56303;52.160;-0.428;2022-07-29T00:45:26;17.70;99.90
20744;DHT22;56303;52.160;-0.428;2022-07-29T00:47:53;17.70;99.90
20744;DHT22;56303;52.160;-0.428;2022-07-29T00:50:20;17.60;99.90
20744;DHT22;56303;52.160;-0.428;2022-07-29T00:52:47;17.50;99.90
20744;DHT22;56303;52.160;-0.428;2022-07-29T00:55:16;17.70;99.90
20744;DHT22;56303;52.160;-0.428;2022-07-29T00:57:44;17.80;99.90
20744;DHT22;56303;52.160;-0.428;2022-07-29T01:00:17;17.60;99.90
20744;DHT22;56303;52.160;-0.428;2022-07-29T01:02:45;17.60;99.90
20744;DHT22;56303;52.160;-0.428;2022-07-29T01:05:17;17.50;99.90
20744;DHT22;56303;52.160;-0.428;2022-07-29T01:07:46;17.30;99.90
20744;DHT22;56303;52.160;-0.428;2022-07-29T01:10:15;17.20;99.90
20744;DHT22;56303;52.160;-0.428;2022-07-29T01:12:43;17.20;99.90
20744;DHT22;56303;52.160;-0.428;2022-07-29T01:15:13;17.30;99.90
20744;DHT22;56303;52.160;-0.428;2022-07-29T01:23:15;17.90;99.90
20744;DHT22;56303;52.160;-0.428;2022-07-29T01:26:12;18.00;99.90
20744;DHT22;56303;52.160;-0.428;2022-07-29T01:32:03;17.90;99.90
20744;DHT22;56303;52.160;-0.428;2022-07-29T01:34:50;17.90;99.90
20744;DHT22;56303;52.160;-0.428;2022-07-29T01:37:24;17.90;99.90
20744;DHT22;56303;52.160;-0.428;2022-07-29T01:39:55;18.00;99.90
20744;DHT22;56303;52.160;-0.428;2022-07-29T01:42:36;17.90;99.90
20744;DHT22;56303;52.160;-0.428;2022-07-29T01:45:21;17.80;99.90
20744;DHT22;56303;52.160;-0.428;2022-07-29T01:47:54;17.30;99.90
20744;DHT22;56303;52.160;-0.428;2022-07-29T01:50:28;17.10;99.90
20744;DHT22;56303;52.160;-0.428;2022-07-29T01:52:59;17.10;99.90
20744;DHT22;56303;52.160;-0.428;2022-07-29T01:55:32;16.80;99.90
20744;DHT22;56303;52.160;-0.428;2022-07-29T01:58:03;16.70;99.90
20744;DHT22;56303;52.160;-0.428;2022-07-29T02:00:31;16.80;99.90
20744;DHT22;56303;52.160;-0.428;2022-07-29T02:03:00;16.80;99.90
20744;DHT22;56303;52.160;-0.428;2022-07-29T02:05:30;16.80;99.90
20744;DHT22;56303;52.160;-0.428;2022-07-29T02:08:00;16.70;99.90
20744;DHT22;56303;52.160;-0.428;2022-07-29T02:10:30;16.80;99.90
20744;DHT22;56303;52.160;-0.428;2022-07-29T02:12:58;16.90;99.90
20744;DHT22;56303;52.160;-0.428;2022-07-29T02:15:28;17.10;99.90
20744;DHT22;56303;52.160;-0.428;2022-07-29T02:17:59;17.30;99.90
20744;DHT22;56303;52.160;-0.428;2022-07-29T02:20:28;17.40;99.90
20744;DHT22;56303;52.160;-0.428;2022-07-29T02:22:57;17.40;99.90
20744;DHT22;56303;52.160;-0.428;2022-07-29T02:25:26;17.30;99.90
20744;DHT22;56303;52.160;-0.428;2022-07-29T02:28:05;17.40;99.90
20744;DHT22;56303;52.160;-0.428;2022-07-29T02:30:33;17.30;99.90
20744;DHT22;56303;52.160;-0.428;2022-07-29T02:33:03;17.30;99.90
20744;DHT22;56303;52.160;-0.428;2022-07-29T02:35:30;17.30;99.90
20744;DHT22;56303;52.160;-0.428;2022-07-29T02:38:01;17.20;99.90
20744;DHT22;56303;52.160;-0.428;2022-07-29T02:40:48;17.20;99.90
20744;DHT22;56303;52.160;-0.428;2022-07-29T02:43:17;17.40;99.90
20744;DHT22;56303;52.160;-0.428;2022-07-29T02:45:47;17.80;99.90
20744;DHT22;56303;52.160;-0.428;2022-07-29T02:48:18;17.60;99.90
20744;DHT22;56303;52.160;-0.428;2022-07-29T02:50:53;17.40;99.90
20744;DHT22;56303;52.160;-0.428;2022-07-29T02:53:24;17.20;99.90
20744;DHT22;56303;52.160;-0.428;2022-07-29T02:55:57;17.20;99.90
20744;DHT22;56303;52.160;-0.428;2022-07-29T02:58:32;17.30;99.90
20744;DHT22;56303;52.160;-0.428;2022-07-29T03:01:03;17.40;99.90
20744;DHT22;56303;52.160;-0.428;2022-07-29T03:03:36;17.30;99.90
20744;DHT22;56303;52.160;-0.428;2022-07-29T03:06:04;17.30;99.90
20744;DHT22;56303;52.160;-0.428;2022-07-29T03:08:32;17.20;99.90
20744;DHT22;56303;52.160;-0.428;2022-07-29T03:11:01;17.20;99.90
20744;DHT22;56303;52.160;-0.428;2022-07-29T03:13:29;17.50;99.90
20744;DHT22;56303;52.160;-0.428;2022-07-29T03:15:57;17.60;99.90
20744;DHT22;56303;52.160;-0.428;2022-07-29T03:18:25;17.60;99.90
20744;DHT22;56303;52.160;-0.428;2022-07-29T03:20:53;17.50;99.90
20744;DHT22;56303;52.160;-0.428;2022-07-29T03:23:21;17.20;99.90
20744;DHT22;56303;52.160;-0.428;2022-07-29T03:25:50;17.10;99.90
20744;DHT22;56303;52.160;-0.428;2022-07-29T03:28:17;17.20;99.90
20744;DHT22;56303;52.160;-0.428;2022-07-29T03:30:44;17.30;99.90
20744;DHT22;56303;52.160;-0.428;2022-07-29T03:33:12;17.40;99.90
20744;DHT22;56303;52.160;-0.428;2022-07-29T03:35:39;17.20;99.90
20744;DHT22;56303;52.160;-0.428;2022-07-29T03:38:06;17.20;99.90
20744;DHT22;56303;52.160;-0.428;2022-07-29T03:41:09;17.20;99.90
20744;DHT22;56303;52.160;-0.428;2022-07-29T03:43:31;17.10;99.90
20744;DHT22;56303;52.160;-0.428;2022-07-29T03:46:00;17.00;99.90
20744;DHT22;56303;52.160;-0.428;2022-07-29T03:48:30;17.00;99.90
20744;DHT22;56303;52.160;-0.428;2022-07-29T03:50:59;17.20;99.90
20744;DHT22;56303;52.160;-0.428;2022-07-29T03:53:26;17.10;99.90
20744;DHT22;56303;52.160;-0.428;2022-07-29T03:55:57;16.90;99.90
20744;DHT22;56303;52.160;-0.428;2022-07-29T03:58:27;16.60;99.90
20744;DHT22;56303;52.160;-0.428;2022-07-29T04:00:55;16.80;99.90
20744;DHT22;56303;52.160;-0.428;2022-07-29T04:03:22;16.70;99.90
20744;DHT22;56303;52.160;-0.428;2022-07-29T04:06:00;16.80;99.90
20744;DHT22;56303;52.160;-0.428;2022-07-29T04:08:28;16.80;99.90
20744;DHT22;56303;52.160;-0.428;2022-07-29T04:10:55;17.00;99.90
20744;DHT22;56303;52.160;-0.428;2022-07-29T04:13:22;17.10;99.90
20744;DHT22;56303;52.160;-0.428;2022-07-29T04:15:49;16.90;99.90
20744;DHT22;56303;52.160;-0.428;2022-07-29T04:18:15;16.70;99.90
20744;DHT22;56303;52.160;-0.428;2022-07-29T04:20:42;16.70;99.90
20744;DHT22;56303;52.160;-0.428;2022-07-29T04:23:09;16.60;99.90
20744;DHT22;56303;52.160;-0.428;2022-07-29T04:25:40;16.60;99.90
20744;DHT22;56303;52.160;-0.428;2022-07-29T04:28:07;16.60;99.90
20744;DHT22;56303;52.160;-0.428;2022-07-29T04:30:35;16.60;99.90
20744;DHT22;56303;52.160;-0.428;2022-07-29T04:33:04;16.50;99.90
20744;DHT22;56303;52.160;-0.428;2022-07-29T04:35:34;16.50;99.90
20744;DHT22;56303;52.160;-0.428;2022-07-29T04:38:05;16.70;99.90
20744;DHT22;56303;52.160;-0.428;2022-07-29T04:40:33;16.70;99.90
20744;DHT22;56303;52.160;-0.428;2022-07-29T04:43:04;16.60;99.90
20744;DHT22;56303;52.160;-0.428;2022-07-29T04:45:31;16.50;99.90
20744;DHT22;56303;52.160;-0.428;2022-07-29T04:47:58;16.60;99.90
20744;DHT22;56303;52.160;-0.428;2022-07-29T04:50:25;16.80;99.90
20744;DHT22;56303;52.160;-0.428;2022-07-29T04:52:52;16.80;99.90
20744;DHT22;56303;52.160;-0.428;2022-07-29T04:55:19;16.50;99.90
20744;DHT22;56303;52.160;-0.428;2022-07-29T04:57:45;16.50;99.90
20744;DHT22;56303;52.160;-0.428;2022-07-29T05:00:13;16.40;99.90
20744;DHT22;56303;52.160;-0.428;2022-07-29T05:02:39;16.40;99.90
20744;DHT22;56303;52.160;-0.428;2022-07-29T05:05:07;16.40;99.90
20744;DHT22;56303;52.160;-0.428;2022-07-29T05:07:34;16.40;99.90
20744;DHT22;56303;52.160;-0.428;2022-07-29T05:10:01;16.50;99.90
20744;DHT22;56303;52.160;-0.428;2022-07-29T05:12:28;16.70;99.90
20744;DHT22;56303;52.160;-0.428;2022-07-29T05:14:55;16.60;99.90
20744;DHT22;56303;52.160;-0.428;2022-07-29T05:17:21;16.70;99.90
20744;DHT22;56303;52.160;-0.428;2022-07-29T05:19:48;16.70;99.90
20744;DHT22;56303;52.160;-0.428;2022-07-29T05:22:18;16.70;99.90
20744;DHT22;56303;52.160;-0.428;2022-07-29T05:24:45;16.70;99.90
20744;DHT22;56303;52.160;-0.428;2022-07-29T05:27:12;16.90;99.90
20744;DHT22;56303;52.160;-0.428;2022-07-29T05:29:39;16.80;99.90
20744;DHT22;56303;52.160;-0.428;2022-07-29T05:32:10;16.80;99.90
20744;DHT22;56303;52.160;-0.428;2022-07-29T05:34:37;17.10;99.90
20744;DHT22;56303;52.160;-0.428;2022-07-29T05:37:20;17.10;99.90
20744;DHT22;56303;52.160;-0.428;2022-07-29T05:39:47;17.10;99.90
20744;DHT22;56303;52.160;-0.428;2022-07-29T05:42:23;17.10;99.90
20744;DHT22;56303;52.160;-0.428;2022-07-29T05:44:50;17.00;99.90
20744;DHT22;56303;52.160;-0.428;2022-07-29T05:47:17;16.90;99.90
20744;DHT22;56303;52.160;-0.428;2022-07-29T05:49:44;17.00;99.90
20744;DHT22;56303;52.160;-0.428;2022-07-29T05:52:12;16.90;99.90
20744;DHT22;56303;52.160;-0.428;2022-07-29T05:54:40;17.00;99.90
20744;DHT22;56303;52.160;-0.428;2022-07-29T05:57:07;17.00;99.90
20744;DHT22;56303;52.160;-0.428;2022-07-29T05:59:38;17.00;99.90
20744;DHT22;56303;52.160;-0.428;2022-07-29T06:02:05;17.10;99.90
20744;DHT22;56303;52.160;-0.428;2022-07-29T06:04:32;17.50;99.90
20744;DHT22;56303;52.160;-0.428;2022-07-29T06:07:00;17.80;99.90
20744;DHT22;56303;52.160;-0.428;2022-07-29T06:09:28;17.40;99.90
20744;DHT22;56303;52.160;-0.428;2022-07-29T06:11:55;17.30;99.90
20744;DHT22;56303;52.160;-0.428;2022-07-29T06:14:22;17.40;99.90
20744;DHT22;56303;52.160;-0.428;2022-07-29T06:16:49;17.50;99.90
20744;DHT22;56303;52.160;-0.428;2022-07-29T06:19:16;17.70;99.90
20744;DHT22;56303;52.160;-0.428;2022-07-29T06:21:44;17.50;99.90
20744;DHT22;56303;52.160;-0.428;2022-07-29T06:24:11;17.70;99.90
20744;DHT22;56303;52.160;-0.428;2022-07-29T06:26:40;17.50;99.90
20744;DHT22;56303;52.160;-0.428;2022-07-29T06:29:07;17.70;99.90
20744;DHT22;56303;52.160;-0.428;2022-07-29T06:31:34;17.90;99.90
20744;DHT22;56303;52.160;-0.428;2022-07-29T06:34:01;17.80;99.90
20744;DHT22;56303;52.160;-0.428;2022-07-29T06:36:29;17.60;99.90
20744;DHT22;56303;52.160;-0.428;2022-07-29T06:38:56;17.80;99.90
20744;DHT22;56303;52.160;-0.428;2022-07-29T06:41:23;17.50;99.90
20744;DHT22;56303;52.160;-0.428;2022-07-29T06:43:50;17.60;99.90
20744;DHT22;56303;52.160;-0.428;2022-07-29T06:46:22;17.30;99.90
20744;DHT22;56303;52.160;-0.428;2022-07-29T06:48:50;17.60;99.90
20744;DHT22;56303;52.160;-0.428;2022-07-29T06:51:19;17.90;99.90
20744;DHT22;56303;52.160;-0.428;2022-07-29T06:53:49;18.20;99.90
20744;DHT22;56303;52.160;-0.428;2022-07-29T06:56:29;18.20;99.90
20744;DHT22;56303;52.160;-0.428;2022-07-29T06:58:56;18.10;99.90
20744;DHT22;56303;52.160;-0.428;2022-07-29T07:01:23;17.80;99.90
20744;DHT22;56303;52.160;-0.428;2022-07-29T07:03:50;17.80;99.90
20744;DHT22;56303;52.160;-0.428;2022-07-29T07:06:17;17.80;99.90
20744;DHT22;56303;52.160;-0.428;2022-07-29T07:08:44;18.00;99.90
20744;DHT22;56303;52.160;-0.428;2022-07-29T07:11:10;18.10;99.90
20744;DHT22;56303;52.160;-0.428;2022-07-29T07:13:37;18.00;99.90
20744;DHT22;56303;52.160;-0.428;2022-07-29T07:16:04;18.00;99.90
20744;DHT22;56303;52.160;-0.428;2022-07-29T07:18:32;18.30;99.90
20744;DHT22;56303;52.160;-0.428;2022-07-29T07:20:58;18.60;99.90
20744;DHT22;56303;52.160;-0.428;2022-07-29T07:23:25;18.80;99.90
20744;DHT22;56303;52.160;-0.428;2022-07-29T07:25:52;18.70;99.90
20744;DHT22;56303;52.160;-0.428;2022-07-29T07:28:20;18.80;99.90
20744;DHT22;56303;52.160;-0.428;2022-07-29T07:30:51;18.80;99.90
20744;DHT22;56303;52.160;-0.428;2022-07-29T07:33:18;18.90;99.90
20744;DHT22;56303;52.160;-0.428;2022-07-29T07:35:45;18.70;99.90
20744;DHT22;56303;52.160;-0.428;2022-07-29T07:38:12;18.80;99.90
20744;DHT22;56303;52.160;-0.428;2022-07-29T07:40:40;18.80;99.90
20744;DHT22;56303;52.160;-0.428;2022-07-29T07:43:07;19.10;99.90
20744;DHT22;56303;52.160;-0.428;2022-07-29T07:45:34;19.10;99.90
20744;DHT22;56303;52.160;-0.428;2022-07-29T07:48:04;19.10;99.90
20744;DHT22;56303;52.160;-0.428;2022-07-29T07:50:31;19.40;99.90
20744;DHT22;56303;52.160;-0.428;2022-07-29T07:52:58;19.50;99.90
20744;DHT22;56303;52.160;-0.428;2022-07-29T07:55:26;19.60;99.90
20744;DHT22;56303;52.160;-0.428;2022-07-29T07:57:53;19.70;99.90
20744;DHT22;56303;52.160;-0.428;2022-07-29T08:00:21;19.70;99.90
20744;DHT22;56303;52.160;-0.428;2022-07-29T08:02:49;20.00;99.90
20744;DHT22;56303;52.160;-0.428;2022-07-29T08:05:17;19.90;99.90
20744;DHT22;56303;52.160;-0.428;2022-07-29T08:07:47;19.60;99.90
20744;DHT22;56303;52.160;-0.428;2022-07-29T08:10:15;19.60;99.90
20744;DHT22;56303;52.160;-0.428;2022-07-29T08:13:08;19.90;99.90
20744;DHT22;56303;52.160;-0.428;2022-07-29T08:15:36;20.10;99.90
20744;DHT22;56303;52.160;-0.428;2022-07-29T08:18:03;20.30;99.90
20744;DHT22;56303;52.160;-0.428;2022-07-29T08:20:35;20.60;99.90
20744;DHT22;56303;52.160;-0.428;2022-07-29T08:23:03;20.20;99.90
20744;DHT22;56303;52.160;-0.428;2022-07-29T08:25:31;20.10;99.90
20744;DHT22;56303;52.160;-0.428;2022-07-29T08:28:00;20.30;99.90
20744;DHT22;56303;52.160;-0.428;2022-07-29T08:30:27;20.50;99.90
20744;DHT22;56303;52.160;-0.428;2022-07-29T08:32:53;20.40;99.90
20744;DHT22;56303;52.160;-0.428;2022-07-29T08:35:22;20.70;99.90
20744;DHT22;56303;52.160;-0.428;2022-07-29T08:37:50;20.60;99.90
20744;DHT22;56303;52.160;-0.428;2022-07-29T08:40:18;20.50;99.90
20744;DHT22;56303;52.160;-0.428;2022-07-29T08:42:58;20.50;99.90
20744;DHT22;56303;52.160;-0.428;2022-07-29T08:45:25;20.60;99.90
20744;DHT22;56303;52.160;-0.428;2022-07-29T08:47:53;20.70;99.90
20744;DHT22;56303;52.160;-0.428;2022-07-29T08:50:20;21.10;99.90
20744;DHT22;56303;52.160;-0.428;2022-07-29T08:52:47;21.10;99.90
20744;DHT22;56303;52.160;-0.428;2022-07-29T08:55:15;21.40;99.90
20744;DHT22;56303;52.160;-0.428;2022-07-29T08:57:47;21.40;99.90
20744;DHT22;56303;52.160;-0.428;2022-07-29T09:00:21;21.20;99.90
20744;DHT22;56303;52.160;-0.428;2022-07-29T09:02:54;21.20;99.90
20744;DHT22;56303;52.160;-0.428;2022-07-29T09:05:24;21.40;99.90
20744;DHT22;56303;52.160;-0.428;2022-07-29T09:07:52;21.80;99.90
20744;DHT22;56303;52.160;-0.428;2022-07-29T09:10:19;21.80;99.90
20744;DHT22;56303;52.160;-0.428;2022-07-29T09:12:46;21.90;99.90
20744;DHT22;56303;52.160;-0.428;2022-07-29T09:15:13;22.30;99.90
20744;DHT22;56303;52.160;-0.428;2022-07-29T09:17:45;22.30;99.90
20744;DHT22;56303;52.160;-0.428;2022-07-29T09:20:19;22.10;99.90
20744;DHT22;56303;52.160;-0.428;2022-07-29T09:22:47;21.90;99.90
20744;DHT22;56303;52.160;-0.428;2022-07-29T09:25:36;22.10;99.90
20744;DHT22;56303;52.160;-0.428;2022-07-29T09:28:14;22.40;99.90
20744;DHT22;56303;52.160;-0.428;2022-07-29T09:30:58;22.50;99.90
20744;DHT22;56303;52.160;-0.428;2022-07-29T09:33:33;22.70;99.90
20744;DHT22;56303;52.160;-0.428;2022-07-29T09:36:07;22.90;99.90
20744;DHT22;56303;52.160;-0.428;2022-07-29T09:38:36;22.90;99.90
20744;DHT22;56303;52.160;-0.428;2022-07-29T09:41:06;22.90;99.90
20744;DHT22;56303;52.160;-0.428;2022-07-29T09:43:35;22.80;99.90
20744;DHT22;56303;52.160;-0.428;2022-07-29T09:46:13;22.50;99.90
20744;DHT22;56303;52.160;-0.428;2022-07-29T09:48:40;22.60;99.90
20744;DHT22;56303;52.160;-0.428;2022-07-29T09:51:20;22.60;99.90
20744;DHT22;56303;52.160;-0.428;2022-07-29T09:54:23;22.70;99.90
20744;DHT22;56303;52.160;-0.428;2022-07-29T09:56:50;22.50;99.90
20744;DHT22;56303;52.160;-0.428;2022-07-29T09:59:17;22.70;99.90
20744;DHT22;56303;52.160;-0.428;2022-07-29T10:01:44;22.70;99.90
20744;DHT22;56303;52.160;-0.428;2022-07-29T10:04:11;22.40;99.90
20744;DHT22;56303;52.160;-0.428;2022-07-29T10:07:00;22.70;99.90
20744;DHT22;56303;52.160;-0.428;2022-07-29T10:09:31;23.30;99.90
20744;DHT22;56303;52.160;-0.428;2022-07-29T10:12:12;23.00;99.90
20744;DHT22;56303;52.160;-0.428;2022-07-29T10:14:42;23.30;99.90
20744;DHT22;56303;52.160;-0.428;2022-07-29T10:17:10;23.50;99.90
20744;DHT22;56303;52.160;-0.428;2022-07-29T10:19:38;23.90;99.90
20744;DHT22;56303;52.160;-0.428;2022-07-29T10:22:07;24.20;99.90
20744;DHT22;56303;52.160;-0.428;2022-07-29T10:24:38;24.00;99.90
20744;DHT22;56303;52.160;-0.428;2022-07-29T10:27:07;24.00;99.90
20744;DHT22;56303;52.160;-0.428;2022-07-29T10:29:34;23.50;99.90
20744;DHT22;56303;52.160;-0.428;2022-07-29T10:40:42;24.50;99.60
20744;DHT22;56303;52.160;-0.428;2022-07-29T10:43:38;24.50;99.70
20744;DHT22;56303;52.160;-0.428;2022-07-29T10:46:08;24.40;99.20
20744;DHT22;56303;52.160;-0.428;2022-07-29T10:57:30;24.50;98.80
20744;DHT22;56303;52.160;-0.428;2022-07-29T11:00:28;25.00;97.70
20744;DHT22;56303;52.160;-0.428;2022-07-29T11:02:56;24.70;97.90
20744;DHT22;56303;52.160;-0.428;2022-07-29T11:05:25;24.60;98.50
20744;DHT22;56303;52.160;-0.428;2022-07-29T11:10:47;24.30;98.40
20744;DHT22;56303;52.160;-0.428;2022-07-29T11:16:10;25.50;97.70
20744;DHT22;56303;52.160;-0.428;2022-07-29T11:21:44;26.20;96.70
20744;DHT22;56303;52.160;-0.428;2022-07-29T11:24:29;26.30;96.40
20744;DHT22;56303;52.160;-0.428;2022-07-29T11:27:08;26.60;95.90
20744;DHT22;56303;52.160;-0.428;2022-07-29T11:29:47;26.00;97.20
20744;DHT22;56303;52.160;-0.428;2022-07-29T11:32:16;26.40;96.10
20744;DHT22;56303;52.160;-0.428;2022-07-29T11:35:12;26.30;96.20
20744;DHT22;56303;52.160;-0.428;2022-07-29T11:43:57;26.30;96.10
20744;DHT22;56303;52.160;-0.428;2022-07-29T11:46:44;26.50;96.20
20744;DHT22;56303;52.160;-0.428;2022-07-29T11:49:23;26.00;95.60
20744;DHT22;56303;52.160;-0.428;2022-07-29T11:51:59;26.00;96.40
20744;DHT22;56303;52.160;-0.428;2022-07-29T11:54:33;26.60;95.50
20744;DHT22;56303;52.160;-0.428;2022-07-29T11:57:21;26.70;95.40
20744;DHT22;56303;52.160;-0.428;2022-07-29T12:00:06;26.60;95.10
20744;DHT22;56303;52.160;-0.428;2022-07-29T12:02:55;26.70;95.30
20744;DHT22;56303;52.160;-0.428;2022-07-29T12:08:16;26.40;95.30
20744;DHT22;56303;52.160;-0.428;2022-07-29T12:10:48;27.30;94.60
20744;DHT22;56303;52.160;-0.428;2022-07-29T12:13:17;28.00;93.40
20744;DHT22;56303;52.160;-0.428;2022-07-29T12:15:56;28.00;92.80
20744;DHT22;56303;52.160;-0.428;2022-07-29T12:18:28;27.90;92.70
20744;DHT22;56303;52.160;-0.428;2022-07-29T12:20:59;28.00;92.20
20744;DHT22;56303;52.160;-0.428;2022-07-29T12:23:32;27.60;92.50
20744;DHT22;56303;52.160;-0.428;2022-07-29T12:26:04;27.60;92.30
20744;DHT22;56303;52.160;-0.428;2022-07-29T12:28:39;27.80;92.80
20744;DHT22;56303;52.160;-0.428;2022-07-29T12:31:13;27.90;92.60
20744;DHT22;56303;52.160;-0.428;2022-07-29T12:34:00;28.40;92.40
20744;DHT22;56303;52.160;-0.428;2022-07-29T12:36:28;28.60;92.00
20744;DHT22;56303;52.160;-0.428;2022-07-29T12:38:55;28.50;91.10
20744;DHT22;56303;52.160;-0.428;2022-07-29T12:41:22;28.00;91.70
20744;DHT22;56303;52.160;-0.428;2022-07-29T12:43:55;27.50;92.20
20744;DHT22;56303;52.160;-0.428;2022-07-29T12:46:22;27.40;92.30
20744;DHT22;56303;52.160;-0.428;2022-07-29T12:48:54;27.30;91.70
20744;DHT22;56303;52.160;-0.428;2022-07-29T12:54:10;28.60;90.70
20744;DHT22;56303;52.160;-0.428;2022-07-29T12:56:38;29.60;89.20
20744;DHT22;56303;52.160;-0.428;2022-07-29T12:59:20;29.00;90.40
20744;DHT22;56303;52.160;-0.428;2022-07-29T13:01:49;28.60;90.60
20744;DHT22;56303;52.160;-0.428;2022-07-29T13:04:28;28.50;90.60
20744;DHT22;56303;52.160;-0.428;2022-07-29T13:07:06;28.40;90.70
20744;DHT22;56303;52.160;-0.428;2022-07-29T13:09:43;28.20;90.60
20744;DHT22;56303;52.160;-0.428;2022-07-29T13:12:13;28.50;90.60
20744;DHT22;56303;52.160;-0.428;2022-07-29T13:14:43;29.20;89.60
20744;DHT22;56303;52.160;-0.428;2022-07-29T13:17:15;29.90;88.00
20744;DHT22;56303;52.160;-0.428;2022-07-29T13:19:50;30.20;86.40
20744;DHT22;56303;52.160;-0.428;2022-07-29T13:22:24;29.00;87.90
20744;DHT22;56303;52.160;-0.428;2022-07-29T13:24:59;28.60;88.80
20744;DHT22;56303;52.160;-0.428;2022-07-29T13:27:32;28.60;88.40
20744;DHT22;56303;52.160;-0.428;2022-07-29T13:30:00;28.70;87.00
20744;DHT22;56303;52.160;-0.428;2022-07-29T13:32:29;29.20;86.80
20744;DHT22;56303;52.160;-0.428;2022-07-29T13:34:59;29.30;86.20
20744;DHT22;56303;52.160;-0.428;2022-07-29T13:37:30;28.30;86.70
20744;DHT22;56303;52.160;-0.428;2022-07-29T13:39:59;28.80;85.80
20744;DHT22;56303;52.160;-0.428;2022-07-29T13:42:26;29.10;87.50
20744;DHT22;56303;52.160;-0.428;2022-07-29T13:44:53;29.70;84.80
20744;DHT22;56303;52.160;-0.428;2022-07-29T13:47:21;29.70;83.50
20744;DHT22;56303;52.160;-0.428;2022-07-29T13:49:59;29.70;85.20
20744;DHT22;56303;52.160;-0.428;2022-07-29T13:52:26;29.90;85.50
20744;DHT22;56303;52.160;-0.428;2022-07-29T13:54:53;29.80;86.10
20744;DHT22;56303;52.160;-0.428;2022-07-29T13:57:20;29.60;86.20
20744;DHT22;56303;52.160;-0.428;2022-07-29T13:59:47;30.30;83.40
20744;DHT22;56303;52.160;-0.428;2022-07-29T14:02:20;29.90;84.20
20744;DHT22;56303;52.160;-0.428;2022-07-29T14:04:53;29.70;84.80
20744;DHT22;56303;52.160;-0.428;2022-07-29T14:07:21;29.50;83.40
20744;DHT22;56303;52.160;-0.428;2022-07-29T14:09:48;28.90;83.40
20744;DHT22;56303;52.160;-0.428;2022-07-29T14:12:15;28.40;85.80
20744;DHT22;56303;52.160;-0.428;2022-07-29T14:14:42;28.10;85.40
20744;DHT22;56303;52.160;-0.428;2022-07-29T14:17:09;28.20;85.30
20744;DHT22;56303;52.160;-0.428;2022-07-29T14:19:36;28.90;85.00
20744;DHT22;56303;52.160;-0.428;2022-07-29T14:22:05;29.30;85.60
20744;DHT22;56303;52.160;-0.428;2022-07-29T14:24:32;29.20;84.90
20744;DHT22;56303;52.160;-0.428;2022-07-29T14:27:06;29.20;84.40
20744;DHT22;56303;52.160;-0.428;2022-07-29T14:29:34;29.00;84.70
20744;DHT22;56303;52.160;-0.428;2022-07-29T14:32:08;29.20;86.00
20744;DHT22;56303;52.160;-0.428;2022-07-29T14:34:37;28.90;85.60
20744;DHT22;56303;52.160;-0.428;2022-07-29T14:37:05;28.70;86.70
20744;DHT22;56303;52.160;-0.428;2022-07-29T14:39:33;28.40;86.80
20744;DHT22;56303;52.160;-0.428;2022-07-29T14:42:08;27.40;87.60
20744;DHT22;56303;52.160;-0.428;2022-07-29T14:44:37;27.40;88.50
20744;DHT22;56303;52.160;-0.428;2022-07-29T14:47:04;27.80;86.40
20744;DHT22;56303;52.160;-0.428;2022-07-29T14:49:34;28.00;85.80
20744;DHT22;56303;52.160;-0.428;2022-07-29T14:52:01;27.70;88.30
20744;DHT22;56303;52.160;-0.428;2022-07-29T14:54:28;27.50;89.80
20744;DHT22;56303;52.160;-0.428;2022-07-29T14:56:55;28.30;88.60
20744;DHT22;56303;52.160;-0.428;2022-07-29T14:59:24;28.50;87.10
20744;DHT22;56303;52.160;-0.428;2022-07-29T15:01:52;27.80;88.80
20744;DHT22;56303;52.160;-0.428;2022-07-29T15:04:19;28.30;86.00
20744;DHT22;56303;52.160;-0.428;2022-07-29T15:06:46;28.80;84.80
20744;DHT22;56303;52.160;-0.428;2022-07-29T15:09:13;29.60;85.90
20744;DHT22;56303;52.160;-0.428;2022-07-29T15:11:40;29.00;82.90
20744;DHT22;56303;52.160;-0.428;2022-07-29T15:14:07;28.30;85.30
20744;DHT22;56303;52.160;-0.428;2022-07-29T15:16:39;28.50;85.20
20744;DHT22;56303;52.160;-0.428;2022-07-29T15:19:09;28.90;82.60
20744;DHT22;56303;52.160;-0.428;2022-07-29T15:21:37;29.20;82.90
20744;DHT22;56303;52.160;-0.428;2022-07-29T15:24:17;29.10;83.50
20744;DHT22;56303;52.160;-0.428;2022-07-29T15:26:45;28.90;83.40
20744;DHT22;56303;52.160;-0.428;2022-07-29T15:29:12;28.20;84.50
20744;DHT22;56303;52.160;-0.428;2022-07-29T15:31:40;27.80;86.20
20744;DHT22;56303;52.160;-0.428;2022-07-29T15:34:07;27.60;86.10
20744;DHT22;56303;52.160;-0.428;2022-07-29T15:36:34;27.20;87.60
20744;DHT22;56303;52.160;-0.428;2022-07-29T15:39:19;27.00;87.50
20744;DHT22;56303;52.160;-0.428;2022-07-29T15:41:46;27.30;87.60
20744;DHT22;56303;52.160;-0.428;2022-07-29T15:44:13;27.40;86.60
20744;DHT22;56303;52.160;-0.428;2022-07-29T15:46:40;28.00;84.90
20744;DHT22;56303;52.160;-0.428;2022-07-29T15:49:26;27.90;85.20
20744;DHT22;56303;52.160;-0.428;2022-07-29T15:52:16;27.40;87.30
20744;DHT22;56303;52.160;-0.428;2022-07-29T15:54:52;27.00;87.70
20744;DHT22;56303;52.160;-0.428;2022-07-29T15:57:19;26.90;87.80
20744;DHT22;56303;52.160;-0.428;2022-07-29T15:59:46;27.10;87.60
20744;DHT22;56303;52.160;-0.428;2022-07-29T16:02:13;27.60;86.60
20744;DHT22;56303;52.160;-0.428;2022-07-29T16:04:41;28.10;85.00
20744;DHT22;56303;52.160;-0.428;2022-07-29T16:07:07;27.80;85.30
20744;DHT22;56303;52.160;-0.428;2022-07-29T16:09:34;27.40;87.10
20744;DHT22;56303;52.160;-0.428;2022-07-29T16:12:01;28.00;85.30
20744;DHT22;56303;52.160;-0.428;2022-07-29T16:14:36;27.60;86.70
20744;DHT22;56303;52.160;-0.428;2022-07-29T16:17:03;28.10;84.80
20744;DHT22;56303;52.160;-0.428;2022-07-29T16:19:30;28.40;84.60
20744;DHT22;56303;52.160;-0.428;2022-07-29T16:21:57;28.00;85.40